createdAt,value
2018-12-21T00:00:40.514Z,58.70
2018-12-21T00:03:11.450Z,60.87
2018-12-21T00:05:42.582Z,62.83
2018-12-21T00:08:13.744Z,59.47
2018-12-21T00:10:44.443Z,60.90
2018-12-21T00:13:15.390Z,60.00
2018-12-21T00:15:47.161Z,56.97
2018-12-21T00:18:18.502Z,58.57
2018-12-21T00:20:49.796Z,59.20
2018-12-21T00:23:20.833Z,58.60
2018-12-21T00:25:51.774Z,57.77
2018-12-21T00:28:22.855Z,59.83
2018-12-21T00:30:58.895Z,55.70
2018-12-21T00:33:34.833Z,56.07
2018-12-21T00:36:10.729Z,56.83
2018-12-21T00:38:46.973Z,57.37
2018-12-21T00:41:17.774Z,58.90
2018-12-21T00:44:11.449Z,58.27
2018-12-21T00:46:46.566Z,55.97
2018-12-21T00:49:19.051Z,57.43
2018-12-21T00:51:49.869Z,55.10
2018-12-21T00:54:20.732Z,56.80
2018-12-21T00:56:51.243Z,57.67
2018-12-21T00:59:21.956Z,55.73
2018-12-21T01:01:53.495Z,55.47
2018-12-21T01:04:24.407Z,54.17
2018-12-21T01:06:55.213Z,57.80
2018-12-21T01:09:26.747Z,59.80
2018-12-21T01:11:58.355Z,60.30
2018-12-21T01:14:29.249Z,56.77
2018-12-21T01:17:00.737Z,58.17
2018-12-21T01:19:37.441Z,59.70
2018-12-21T01:22:10.548Z,61.37
2018-12-21T01:24:43.979Z,56.57
2018-12-21T01:27:17.295Z,60.70
2018-12-21T01:29:48.114Z,54.67
2018-12-21T01:32:19.971Z,56.30
2018-12-21T01:34:52.522Z,56.67
2018-12-21T01:37:28.303Z,55.70
2018-12-21T01:40:01.183Z,54.87
2018-12-21T01:42:36.698Z,55.40
2018-12-21T01:45:14.379Z,54.90
2018-12-21T01:47:50.026Z,58.00
2018-12-21T01:50:23.572Z,58.40
2018-12-21T01:52:54.122Z,54.00
2018-12-21T01:55:25.090Z,55.20
2018-12-21T01:57:56.184Z,56.97
2018-12-21T02:00:29.137Z,55.90
2018-12-21T02:02:59.907Z,54.43
2018-12-21T02:05:39.158Z,54.43
2018-12-21T02:08:13.841Z,55.17
2018-12-21T02:10:45.199Z,56.30
2018-12-21T02:13:18.406Z,57.10
2018-12-21T02:15:49.226Z,57.10
2018-12-21T02:18:23.659Z,56.07
2018-12-21T02:20:56.839Z,58.23
2018-12-21T02:23:29.541Z,56.77
2018-12-21T02:26:00.802Z,57.70
2018-12-21T02:28:33.270Z,57.90
2018-12-21T02:31:04.560Z,56.37
2018-12-21T02:33:35.378Z,54.90
2018-12-21T02:36:05.908Z,56.90
2018-12-21T02:38:36.475Z,56.77
2018-12-21T02:41:07.149Z,57.40
2018-12-21T02:43:37.963Z,53.57
2018-12-21T02:46:08.527Z,54.70
2018-12-21T02:48:39.280Z,54.23
2018-12-21T02:51:09.895Z,52.83
2018-12-21T02:53:46.043Z,54.50
2018-12-21T02:56:19.822Z,56.47
2018-12-21T02:58:53.518Z,50.30
2018-12-21T03:01:24.750Z,48.60
2018-12-21T03:03:57.962Z,52.90
2018-12-21T03:06:29.349Z,52.57
2018-12-21T03:08:59.947Z,52.57
2018-12-21T03:11:35.472Z,50.50
2018-12-21T03:14:07.691Z,48.40
2018-12-21T03:16:43.267Z,55.17
2018-12-21T03:19:17.782Z,52.83
2018-12-21T03:21:48.491Z,55.93
2018-12-21T03:24:19.160Z,56.43
2018-12-21T03:26:55.560Z,55.23
2018-12-21T03:29:28.942Z,54.77
2018-12-21T03:32:00.294Z,52.10
2018-12-21T03:34:31.256Z,53.70
2018-12-21T03:37:09.517Z,54.03
2018-12-21T03:39:42.783Z,52.80
2018-12-21T03:42:17.459Z,50.37
2018-12-21T03:44:52.883Z,54.47
2018-12-21T03:47:23.844Z,52.57
2018-12-21T03:49:54.572Z,50.90
2018-12-21T03:52:28.618Z,51.73
2018-12-21T03:54:59.918Z,52.77
2018-12-21T03:57:31.838Z,54.33
2018-12-21T04:00:11.570Z,53.27
2018-12-21T04:02:42.535Z,53.43
2018-12-21T04:05:13.058Z,55.37
2018-12-21T04:07:43.610Z,49.57
2018-12-21T04:10:14.593Z,49.73
2018-12-21T04:12:45.487Z,50.57
2018-12-21T04:15:16.109Z,49.97
2018-12-21T04:17:47.445Z,52.60
2018-12-21T04:20:19.677Z,50.20
2018-12-21T04:22:50.993Z,49.97
2018-12-21T04:25:21.954Z,54.17
2018-12-21T04:27:55.959Z,51.67
2018-12-21T04:30:27.023Z,50.33
2018-12-21T04:33:00.618Z,50.10
2018-12-21T04:35:34.054Z,50.23
2018-12-21T04:38:06.887Z,48.00
2018-12-21T04:40:38.491Z,50.60
2018-12-21T04:43:09.362Z,49.53
2018-12-21T04:45:41.902Z,47.43
2018-12-21T04:48:16.581Z,49.20
2018-12-21T04:50:49.844Z,49.27
2018-12-21T04:53:23.178Z,48.30
2018-12-21T04:55:54.995Z,50.07
2018-12-21T04:58:27.758Z,51.20
2018-12-21T05:00:58.398Z,49.33
2018-12-21T05:03:28.932Z,49.27
2018-12-21T05:06:00.119Z,49.47
2018-12-21T05:08:34.006Z,47.90
2018-12-21T05:11:12.943Z,50.53
2018-12-21T05:13:46.115Z,46.50
2018-12-21T05:16:17.406Z,48.60
2018-12-21T05:18:48.191Z,48.33
2018-12-21T05:21:18.939Z,50.57
2018-12-21T05:23:49.638Z,45.67
2018-12-21T05:26:20.675Z,47.10
2018-12-21T05:28:51.805Z,47.20
2018-12-21T05:31:28.278Z,47.50
2018-12-21T05:33:56.188Z,46.00
2018-12-21T05:36:26.969Z,47.60
2018-12-21T05:39:00.634Z,46.47
2018-12-21T05:41:31.614Z,47.03
2018-12-21T05:44:06.309Z,43.37
2018-12-21T05:46:41.322Z,46.27
2018-12-21T05:49:12.079Z,46.77
2018-12-21T05:51:43.141Z,48.43
2018-12-21T05:54:19.168Z,47.47
2018-12-21T05:56:53.994Z,44.80
2018-12-21T05:59:26.270Z,47.97
2018-12-21T06:01:58.904Z,48.53
2018-12-21T06:04:31.119Z,49.13
2018-12-21T06:07:08.018Z,49.70
2018-12-21T06:09:45.280Z,50.97
2018-12-21T06:12:18.085Z,51.97
2018-12-21T06:14:49.481Z,50.03
2018-12-21T06:17:22.510Z,49.20
2018-12-21T06:19:54.920Z,46.70
2018-12-21T06:22:29.460Z,51.03
2018-12-21T06:25:00.489Z,51.83
2018-12-21T06:27:35.406Z,53.03
2018-12-21T06:30:17.486Z,50.10
2018-12-21T06:32:55.655Z,51.40
2018-12-21T06:35:29.708Z,52.80
2018-12-21T06:38:01.049Z,47.37
2018-12-21T06:40:32.587Z,46.77
2018-12-21T06:43:04.569Z,48.20
2018-12-21T06:45:39.274Z,48.10
2018-12-21T06:48:13.448Z,45.70
2018-12-21T06:50:44.782Z,45.97
2018-12-21T06:53:18.012Z,45.57
2018-12-21T06:55:53.747Z,47.57
2018-12-21T06:58:24.771Z,45.67
2018-12-21T07:00:55.938Z,46.03
2018-12-21T07:03:26.863Z,51.17
2018-12-21T07:05:59.835Z,50.50
2018-12-21T07:08:30.800Z,50.07
2018-12-21T07:11:05.097Z,50.87
2018-12-21T07:13:38.980Z,51.73
2018-12-21T07:16:12.265Z,51.17
2018-12-21T07:18:51.595Z,52.23
2018-12-21T07:21:22.842Z,47.90
2018-12-21T07:23:53.883Z,49.90
2018-12-21T07:26:26.562Z,49.40
2018-12-21T07:28:58.170Z,48.90
2018-12-21T07:31:31.739Z,47.03
2018-12-21T07:34:05.066Z,47.50
2018-12-21T07:36:36.814Z,47.87
2018-12-21T07:39:13.177Z,49.47
2018-12-21T07:41:44.576Z,49.10
2018-12-21T07:44:18.218Z,48.30
2018-12-21T07:46:50.599Z,51.20
2018-12-21T07:49:26.270Z,50.17
2018-12-21T07:52:07.553Z,48.23
2018-12-21T07:54:40.762Z,45.17
2018-12-21T07:57:12.974Z,47.40
2018-12-21T07:59:45.672Z,45.97
2018-12-21T08:02:19.279Z,46.50
2018-12-21T08:04:49.806Z,45.73
2018-12-21T08:07:20.473Z,47.83
2018-12-21T08:09:51.118Z,47.80
2018-12-21T08:12:22.004Z,48.97
2018-12-21T08:14:52.613Z,44.30
2018-12-21T08:17:24.600Z,46.27
2018-12-21T08:19:56.985Z,46.40
2018-12-21T08:22:29.900Z,44.60
2018-12-21T08:25:01.147Z,44.07
2018-12-21T08:27:32.855Z,47.23
2018-12-21T08:30:10.730Z,45.60
2018-12-21T08:32:42.256Z,44.13
2018-12-21T08:35:12.776Z,46.43
2018-12-21T08:37:43.740Z,45.53
2018-12-21T08:40:15.228Z,44.80
2018-12-21T08:42:46.387Z,42.23
2018-12-21T08:45:19.635Z,44.93
2018-12-21T08:47:53.409Z,42.60
2018-12-21T08:50:24.245Z,41.47
2018-12-21T08:52:57.070Z,41.83
2018-12-21T08:55:27.964Z,42.33
2018-12-21T08:58:04.770Z,43.80
2018-12-21T09:00:38.022Z,39.83
2018-12-21T09:03:09.657Z,41.67
2018-12-21T09:05:51.050Z,41.20
2018-12-21T09:08:22.217Z,40.20
2018-12-21T09:10:58.914Z,41.80
2018-12-21T09:13:33.882Z,44.07
2018-12-21T09:16:07.257Z,42.53
2018-12-21T09:18:39.427Z,44.63
2018-12-21T09:21:14.290Z,41.03
2018-12-21T09:23:46.805Z,42.00
2018-12-21T09:26:20.079Z,43.70
2018-12-21T09:28:51.645Z,44.83
2018-12-21T09:31:24.358Z,42.30
2018-12-21T09:33:57.473Z,44.20
2018-12-21T09:36:30.325Z,40.87
2018-12-21T09:39:00.941Z,40.20
2018-12-21T09:41:37.280Z,39.80
2018-12-21T09:44:08.330Z,40.77
2018-12-21T09:46:42.324Z,38.80
2018-12-21T09:49:16.450Z,36.07
2018-12-21T09:51:52.225Z,37.80
2018-12-21T09:54:23.491Z,40.23
2018-12-21T09:56:55.069Z,39.80
2018-12-21T09:59:28.114Z,38.70
2018-12-21T10:02:07.250Z,38.40
2018-12-21T10:04:37.951Z,39.40
2018-12-21T10:07:08.858Z,37.10
2018-12-21T10:09:45.341Z,37.47
2018-12-21T10:12:18.574Z,35.77
2018-12-21T10:14:52.333Z,38.00
2018-12-21T10:17:25.524Z,40.47
2018-12-21T10:19:56.113Z,38.47
2018-12-21T10:22:26.925Z,39.20
2018-12-21T10:24:57.612Z,38.67
2018-12-21T10:27:37.260Z,38.77
2018-12-21T10:30:13.590Z,38.40
2018-12-21T10:32:44.325Z,39.00
2018-12-21T10:35:15.290Z,38.80
2018-12-21T10:37:46.014Z,39.20
2018-12-21T10:40:19.410Z,39.17
2018-12-21T10:42:52.478Z,37.87
2018-12-21T10:45:23.866Z,38.83
2018-12-21T10:47:56.886Z,39.83
2018-12-21T10:50:28.138Z,39.87
2018-12-21T10:53:01.839Z,40.17
2018-12-21T10:55:35.355Z,42.23
2018-12-21T10:58:05.899Z,44.90
2018-12-21T11:00:36.840Z,40.73
2018-12-21T11:03:07.361Z,43.63
2018-12-21T11:05:38.122Z,43.20
2018-12-21T11:08:08.941Z,41.60
2018-12-21T11:10:42.663Z,44.90
2018-12-21T11:13:16.656Z,44.50
2018-12-21T11:15:48.855Z,46.40
2018-12-21T11:18:19.492Z,45.77
2018-12-21T11:20:52.814Z,44.87
2018-12-21T11:23:24.987Z,44.50
2018-12-21T11:25:57.463Z,42.60
2018-12-21T11:28:28.166Z,46.43
2018-12-21T11:31:08.428Z,45.90
2018-12-21T11:33:40.821Z,43.87
2018-12-21T11:36:12.450Z,44.33
2018-12-21T11:38:44.757Z,42.77
2018-12-21T11:41:15.835Z,43.03
2018-12-21T11:43:46.469Z,42.87
2018-12-21T11:46:17.081Z,42.20
2018-12-21T11:48:48.181Z,42.27
2018-12-21T11:51:21.105Z,46.47
2018-12-21T11:53:53.842Z,45.10
2018-12-21T11:56:30.657Z,43.43
2018-12-21T11:59:01.298Z,41.90
2018-12-21T12:01:35.730Z,44.23
2018-12-21T12:04:06.988Z,44.53
2018-12-21T12:06:37.814Z,42.33
2018-12-21T12:09:08.812Z,44.07
2018-12-21T12:11:39.831Z,43.10
2018-12-21T12:14:13.963Z,40.83
2018-12-21T12:16:48.322Z,43.20
2018-12-21T12:19:20.020Z,45.07
2018-12-21T12:21:51.788Z,43.40
2018-12-21T12:24:27.412Z,43.60
2018-12-21T12:26:58.371Z,41.97
2018-12-21T12:29:29.462Z,41.50
2018-12-21T12:32:01.024Z,41.43
2018-12-21T12:34:32.342Z,41.80
2018-12-21T12:37:04.270Z,39.90
2018-12-21T12:39:37.173Z,39.90
2018-12-21T12:42:11.623Z,41.37
2018-12-21T12:44:44.127Z,41.67
2018-12-21T12:47:17.256Z,41.50
2018-12-21T12:49:48.774Z,41.00
2018-12-21T12:52:19.446Z,38.27
2018-12-21T12:54:50.290Z,36.67
2018-12-21T12:57:22.949Z,36.40
2018-12-21T12:59:55.349Z,35.67
2018-12-21T13:02:28.168Z,34.70
2018-12-21T13:05:01.444Z,38.93
2018-12-21T13:07:33.385Z,36.23
2018-12-21T13:10:11.566Z,34.43
2018-12-21T13:12:43.202Z,37.10
2018-12-21T13:15:16.191Z,34.77
2018-12-21T13:17:47.482Z,34.60
2018-12-21T13:20:19.775Z,38.83
2018-12-21T13:22:58.410Z,33.33
2018-12-21T13:25:29.136Z,36.07
2018-12-21T13:27:59.914Z,36.53
2018-12-21T13:30:30.474Z,37.70
2018-12-21T13:33:01.270Z,37.83
2018-12-21T13:35:35.112Z,36.27
2018-12-21T13:38:09.454Z,35.20
2018-12-21T13:40:42.347Z,38.53
2018-12-21T13:43:16.141Z,37.90
2018-12-21T13:45:48.271Z,37.90
2018-12-21T13:48:19.221Z,35.83
2018-12-21T13:50:49.750Z,40.53
2018-12-21T13:53:20.282Z,39.40
2018-12-21T13:55:51.102Z,38.30
2018-12-21T13:58:21.718Z,38.97
2018-12-21T14:00:52.260Z,39.43
2018-12-21T14:03:23.290Z,39.57
2018-12-21T14:05:53.822Z,40.23
2018-12-21T14:08:25.308Z,39.20
2018-12-21T14:10:58.377Z,38.77
2018-12-21T14:13:32.310Z,40.83
2018-12-21T14:16:05.106Z,37.57
2018-12-21T14:18:37.841Z,40.73
2018-12-21T14:21:10.443Z,39.00
2018-12-21T14:23:42.655Z,41.37
2018-12-21T14:26:13.740Z,38.33
2018-12-21T14:28:45.295Z,39.17
2018-12-21T14:31:16.330Z,37.50
2018-12-21T14:33:47.796Z,37.33
2018-12-21T14:36:21.563Z,40.70
2018-12-21T14:38:56.607Z,38.30
2018-12-21T14:41:28.329Z,40.10
2018-12-21T14:44:01.622Z,39.20
2018-12-21T14:46:34.912Z,37.20
2018-12-21T14:49:05.629Z,39.27
2018-12-21T14:51:37.640Z,38.90
2018-12-21T14:54:10.450Z,37.90
2018-12-21T14:56:43.794Z,38.00
2018-12-21T14:59:16.746Z,40.80
2018-12-21T15:01:49.074Z,38.90
2018-12-21T15:04:24.247Z,37.57
2018-12-21T15:06:54.762Z,38.33
2018-12-21T15:09:26.253Z,39.43
2018-12-21T15:11:59.815Z,39.10
2018-12-21T15:14:31.014Z,39.60
2018-12-21T15:17:02.125Z,40.70
2018-12-21T15:19:34.964Z,40.33
2018-12-21T15:22:07.798Z,39.90
2018-12-21T15:24:40.502Z,40.33
2018-12-21T15:27:13.945Z,38.30
2018-12-21T15:29:44.761Z,40.67
2018-12-21T15:32:17.574Z,38.90
2018-12-21T15:34:48.407Z,40.83
2018-12-21T15:37:18.939Z,39.70
2018-12-21T15:39:52.476Z,40.50
2018-12-21T15:42:26.764Z,43.53
2018-12-21T15:45:00.169Z,41.37
2018-12-21T15:47:40.135Z,44.77
2018-12-21T15:50:16.932Z,42.67
2018-12-21T15:52:50.115Z,43.37
2018-12-21T15:55:28.224Z,42.53
2018-12-21T15:58:00.314Z,44.63
2018-12-21T16:00:33.981Z,42.53
2018-12-21T16:03:06.053Z,42.57
2018-12-21T16:05:38.225Z,41.80
2018-12-21T16:08:11.386Z,42.17
2018-12-21T16:10:42.517Z,42.90
2018-12-21T16:13:15.767Z,40.90
2018-12-21T16:15:50.010Z,40.27
2018-12-21T16:18:23.012Z,43.53
2018-12-21T16:20:54.083Z,40.93
2018-12-21T16:23:24.903Z,43.47
2018-12-21T16:26:03.530Z,43.60
2018-12-21T16:28:32.222Z,44.00
2018-12-21T16:31:05.757Z,42.83
2018-12-21T16:33:38.967Z,43.27
2018-12-21T16:36:09.933Z,42.80
2018-12-21T16:38:42.326Z,39.70
2018-12-21T16:41:16.146Z,40.87
2018-12-21T16:43:50.748Z,38.87
2018-12-21T16:46:22.639Z,38.77
2018-12-21T16:48:53.341Z,41.20
2018-12-21T16:51:23.974Z,41.17
2018-12-21T16:53:54.758Z,41.17
2018-12-21T16:56:25.268Z,41.97
2018-12-21T16:58:55.926Z,40.00
2018-12-21T17:01:26.510Z,41.80
2018-12-21T17:03:57.271Z,41.43
2018-12-21T17:06:30.441Z,43.63
2018-12-21T17:09:01.197Z,40.50
2018-12-21T17:11:34.254Z,38.97
2018-12-21T17:14:07.060Z,41.13
2018-12-21T17:16:43.336Z,38.87
2018-12-21T17:19:18.575Z,37.73
2018-12-21T17:21:53.220Z,38.20
2018-12-21T17:24:26.550Z,42.40
2018-12-21T17:27:00.188Z,39.73
2018-12-21T17:29:32.346Z,41.90
2018-12-21T17:32:03.590Z,41.23
2018-12-21T17:34:34.528Z,42.10
2018-12-21T17:37:05.102Z,43.53
2018-12-21T17:39:35.700Z,40.67
2018-12-21T17:42:06.435Z,43.73
2018-12-21T17:44:36.955Z,45.97
2018-12-21T17:47:07.644Z,44.67
2018-12-21T17:49:38.808Z,43.67
2018-12-21T17:52:09.776Z,40.60
2018-12-21T17:54:40.725Z,42.47
2018-12-21T17:57:13.946Z,40.90
2018-12-21T17:59:50.555Z,41.70
2018-12-21T18:02:23.890Z,43.37
2018-12-21T18:05:00.527Z,45.00
2018-12-21T18:07:31.224Z,41.80
2018-12-21T18:10:02.126Z,42.77
2018-12-21T18:12:42.417Z,45.20
2018-12-21T18:15:14.030Z,44.20
2018-12-21T18:17:45.223Z,42.73
2018-12-21T18:20:15.529Z,41.17
2018-12-21T18:22:46.367Z,42.30
2018-12-21T18:25:20.870Z,42.80
2018-12-21T18:27:55.006Z,41.70
2018-12-21T18:30:37.260Z,36.87
2018-12-21T18:33:11.700Z,40.93
2018-12-21T18:35:43.472Z,40.80
2018-12-21T18:38:18.253Z,39.80
2018-12-21T18:40:50.533Z,38.87
2018-12-21T18:43:21.884Z,40.73
2018-12-21T18:45:52.711Z,42.00
2018-12-21T18:48:23.489Z,40.83
2018-12-21T18:50:54.046Z,40.57
2018-12-21T18:53:24.859Z,41.20
2018-12-21T18:55:58.217Z,42.43
2018-12-21T18:58:31.615Z,42.00
2018-12-21T19:01:02.135Z,41.50
2018-12-21T19:03:36.747Z,38.97
2018-12-21T19:06:08.329Z,39.70
2018-12-21T19:08:41.646Z,41.23
2018-12-21T19:11:14.531Z,39.10
2018-12-21T19:13:45.281Z,46.98
2018-12-21T19:16:16.518Z,41.23
2018-12-21T19:18:51.066Z,41.27
2018-12-21T19:21:24.940Z,40.60
2018-12-21T19:23:57.020Z,41.60
2018-12-21T19:26:28.199Z,41.70
2018-12-21T19:29:04.268Z,41.13
2018-12-21T19:31:35.050Z,41.17
2018-12-21T19:34:05.582Z,41.07
2018-12-21T19:36:38.630Z,42.33
2018-12-21T19:39:11.806Z,40.73
2018-12-21T19:41:43.918Z,40.30
2018-12-21T19:44:17.063Z,41.50
2018-12-21T19:46:50.835Z,43.00
2018-12-21T19:49:21.984Z,41.73
2018-12-21T19:51:54.825Z,39.57
2018-12-21T19:54:25.710Z,39.67
2018-12-21T19:57:14.044Z,42.07
2018-12-21T19:59:46.925Z,39.10
2018-12-21T20:02:20.136Z,39.93
2018-12-21T20:04:54.634Z,39.20
2018-12-21T20:07:26.881Z,39.23
2018-12-21T20:09:57.979Z,38.73
2018-12-21T20:12:28.978Z,39.27
2018-12-21T20:15:02.880Z,41.70
2018-12-21T20:17:39.887Z,43.57
2018-12-21T20:20:16.833Z,43.00
2018-12-21T20:22:49.807Z,39.27
2018-12-21T20:25:23.312Z,40.77
2018-12-21T20:27:56.204Z,40.37
2018-12-21T20:30:26.987Z,38.30
2018-12-21T20:32:58.554Z,41.13
2018-12-21T20:35:31.977Z,41.63
2018-12-21T20:38:05.532Z,41.23
2018-12-21T20:40:37.854Z,42.20
2018-12-21T20:43:11.874Z,43.70
2018-12-21T20:45:44.298Z,42.17
2018-12-21T20:48:17.287Z,41.67
2018-12-21T20:50:50.337Z,42.80
2018-12-21T20:53:20.947Z,42.80
2018-12-21T20:55:52.254Z,40.93
2018-12-21T20:58:34.095Z,39.40
2018-12-21T21:01:05.602Z,37.83
2018-12-21T21:03:39.514Z,40.33
2018-12-21T21:06:11.572Z,38.97
2018-12-21T21:08:43.367Z,42.20
2018-12-21T21:11:14.421Z,39.70
2018-12-21T21:13:46.502Z,39.00
2018-12-21T21:16:19.675Z,40.50
2018-12-21T21:18:52.380Z,39.87
2018-12-21T21:21:23.201Z,42.03
2018-12-21T21:23:54.742Z,40.93
2018-12-21T21:26:27.510Z,39.60
2018-12-21T21:28:58.187Z,37.23
2018-12-21T21:31:31.055Z,37.40
2018-12-21T21:34:01.973Z,38.93
2018-12-21T21:36:35.531Z,39.37
2018-12-21T21:39:08.311Z,39.10
2018-12-21T21:41:39.997Z,37.07
2018-12-21T21:44:11.348Z,37.33
2018-12-21T21:46:44.436Z,35.87
2018-12-21T21:49:16.030Z,37.50
2018-12-21T21:51:55.799Z,38.87
2018-12-21T21:54:29.442Z,36.80
2018-12-21T21:57:02.485Z,37.37
2018-12-21T21:59:35.353Z,37.10
2018-12-21T22:02:39.437Z,36.23
2018-12-21T22:05:11.502Z,43.40
2018-12-21T22:07:46.007Z,36.50
2018-12-21T22:10:17.462Z,36.60
2018-12-21T22:12:48.663Z,38.60
2018-12-21T22:15:19.600Z,38.20
2018-12-21T22:17:51.008Z,37.67
2018-12-21T22:20:25.093Z,38.70
2018-12-21T22:23:00.208Z,36.93
2018-12-21T22:25:31.538Z,36.30
2018-12-21T22:28:02.057Z,34.90
2018-12-21T22:30:35.535Z,37.17
2018-12-21T22:33:08.887Z,38.60
2018-12-21T22:35:39.765Z,36.60
2018-12-21T22:38:11.343Z,36.00
2018-12-21T22:40:43.417Z,36.47
2018-12-21T22:43:14.446Z,37.20
2018-12-21T22:45:47.453Z,39.30
2018-12-21T22:48:18.730Z,36.40
2018-12-21T22:50:51.025Z,38.03
2018-12-21T22:53:22.469Z,38.60
2018-12-21T22:55:53.556Z,37.40
2018-12-21T22:58:24.726Z,38.80
2018-12-21T23:00:57.758Z,37.60
2018-12-21T23:03:31.767Z,37.77
2018-12-21T23:06:02.384Z,36.83
2018-12-21T23:08:33.435Z,37.70
2018-12-21T23:11:04.298Z,35.83
2018-12-21T23:13:36.908Z,37.47
2018-12-21T23:16:08.755Z,37.00
2018-12-21T23:18:41.530Z,37.43
2018-12-21T23:21:13.242Z,37.77
2018-12-21T23:23:46.627Z,38.70
2018-12-21T23:26:17.757Z,36.47
2018-12-21T23:28:48.728Z,38.17
2018-12-21T23:31:21.919Z,35.77
2018-12-21T23:33:52.772Z,34.93
2018-12-21T23:36:26.054Z,35.90
2018-12-21T23:38:56.618Z,35.03
2018-12-21T23:41:29.417Z,36.10
2018-12-21T23:44:00.822Z,35.93
2018-12-21T23:46:35.198Z,35.13
2018-12-21T23:49:08.036Z,35.77
2018-12-21T23:51:39.279Z,34.80
2018-12-21T23:54:13.702Z,36.07
2018-12-21T23:56:44.278Z,35.20
2018-12-21T23:59:20.145Z,35.23
